• Join FlightAware (Why Join?)
  • Login
  • US Flag 
01:43AM EST


 

Airport Tracker/Info


-or-


 

Live Flight TrackerFlight Track Log ✈ UAL3818 ✈ 23-Apr-2013 ✈ KORD - KCLE

Flight Track Log - Related Links

Times and Time Zones

All times are in EDT time to prevent confusion due to time zone crossing. See the UAL3818 flight status page for this flight to view local times or setup timezone preferences in your user account.

Time Position Orientation Groundspeed Altitude Reporting Facility
EDT Latitude Longitude Course Direction KTS MPH feet Rate Location/Type
11:22PM 42.0333 -87.8833 80° East 192 221 3,900  Level Chicago TRACON
11:23PM 42.1256 -87.7903 37° Northeast 252 290 5,100 1,200 Climbing Chicago Center
11:24PM 42.0497 -87.3698 83° East  Level FlightAware Approximate
11:24PM 42.1572 -87.6936 66° East 284 327 7,300  Level Chicago Center
11:25PM 42.0703 -87.2351 78° East  Level FlightAware Approximate
11:25PM 42.1700 -87.5914 80° East 286 329 10,300  Level Chicago Center
11:26PM 42.0916 -87.1005 77° East  Level FlightAware Approximate
11:26PM 42.1594 -87.4825 97° East 294 338 13,000  Level Chicago Center
11:27PM 42.1038 -86.9700 80° East  Level FlightAware Approximate
11:27PM 42.1469 -87.3742 99° East 294 338 15,300  Level Chicago Center
11:28PM 42.1342 -87.2583 98° East 309 356 17,400 2,160 Climbing Chicago Center
11:29PM 42.1181 -87.1161 99° East 320 368 19,800 2,160 Climbing Chicago Center
11:30PM 42.1161 -86.9886 91° East 347 399 21,900 2,040 Climbing Chicago Center
11:31PM 42.1203 -86.8547 88° East 358 412 24,000 1,500 Climbing Chicago Center
11:32PM 42.1256 -86.7175 87° East 366 421 25,000 480 Climbing Chicago Center
11:33PM 42.1294 -86.5503 88° East 434 499 25,000  Level Chicago Center
11:34PM 42.1350 -86.3728 88° East 467 537 25,000  Level Chicago Center
11:35PM 42.1419 -86.1833 87° East 499 574 25,000  Level Chicago Center
11:36PM 42.1403 -85.9897 91° East 512 589 25,000  Level Chicago Center
11:37PM 42.1350 -85.8169 92° East 508 585 25,000  Level Chicago Center
11:38PM 42.1294 -85.5892 92° East 509 586 25,000  Level Chicago Center
11:40PM 42.1231 -85.4022 93° East 505 581 25,000  Level Chicago Center
11:40PM 42.1239 -85.2956 89° East 519 597 25,000  Level Cleveland Center
11:41PM 42.1167 -85.1103 93° East 514 592 25,000  Level Cleveland Center
11:42PM 42.1114 -84.9222 92° East 508 585 25,000  Level Cleveland Center
11:43PM 42.1039 -84.7311 93° East 508 585 25,000  Level Cleveland Center
11:44PM 42.0958 -84.5458 93° East 500 575 25,000  Level Cleveland Center
11:45PM 42.0897 -84.3553 92° East 505 581 25,000 -120 Level Cleveland Center
11:46PM 42.0756 -84.1472 95° East 505 581 24,800 -540 Descending Cleveland Center
11:47PM 42.0686 -83.9622 93° East 500 575 24,000 -420 Descending Cleveland Center
11:48PM 42.0614 -83.7772 93° East 500 575 24,000  Level Cleveland Center
11:49PM 42.0539 -83.5950 93° East 500 575 24,000 -300 Level Cleveland Center
11:50PM 42.0433 -83.4297 95° East 500 575 23,500 -900 Descending Cleveland Center
11:51PM 42.0269 -83.2500 97° East 495 570 22,200 -1,200 Descending Cleveland Center
11:52PM 42.0100 -83.0703 97° East 490 564 21,100 -1,320 Descending Cleveland Center
11:53PM 41.9908 -82.8992 99° East 478 550 19,600 -1,800 Descending Cleveland Center
11:54PM 41.9753 -82.7253 97° East 472 543 17,500 -2,400 Descending Cleveland Center
11:55PM 41.9664 -82.6469 99° East 466 536 16,400 -2,640 Descending Cleveland Center
11:55PM 41.9533 -82.5572 101° East 461 531 14,900 -2,580 Descending Cleveland Center
11:56PM 41.9378 -82.4925 108° East 426 490 13,800 -2,400 Descending Cleveland Center
11:56PM 41.9139 -82.4164 113° Southeast 432 497 12,500 -2,640 Descending Cleveland Center
11:57PM 41.8919 -82.3544 115° Southeast 391 450 11,200 -1,920 Descending Cleveland Center
11:57PM 41.8658 -82.2925 119° Southeast 377 434 10,600 -1,020 Descending Cleveland Center
11:58PM 41.8394 -82.2497 130° Southeast 319 367 10,200 -1,140 Descending Cleveland Center
11:58PM 41.8089 -82.2072 134° Southeast 352 405 9,500 -1,620 Descending Cleveland Center
11:59PM 41.7822 -82.1703 134° Southeast 285 328 8,600 -1,920 Descending Cleveland Center
11:59PM 41.7494 -82.1167 129° Southeast 301 346 7,600 -1,680 Descending Cleveland Center
12:00AM 41.7311 -82.0911 134° Southeast 279 321 6,900 -1,800 Descending Cleveland Center
12:00AM 41.7006 -82.0433 131° Southeast 274 315 5,800 -1,800 Descending Cleveland Center
12:01AM 41.6781 -82.0150 137° Southeast 262 302 5,100 -1,440 Descending Cleveland Center
12:01AM 41.6578 -81.9672 120° Southeast 262 302 4,400 -1,020 Descending Cleveland Center
12:02AM 41.6414 -81.9336 123° Southeast 261 300 4,100 -420 Descending Cleveland Center
12:02AM 41.6231 -81.8942 122° Southeast 257 296 4,000 -540 Descending Cleveland Center
12:03AM 41.5964 -81.8492 128° Southeast 268 308 3,600 -900 Descending Cleveland Center
12:03AM 41.5781 -81.8211 131° Southeast 262 302 3,100 -600 Descending Cleveland Center
12:04AM 41.5472 -81.7900 143° Southeast 248 285 3,000 -240 Descending Cleveland Center
12:04AM 41.5222 -81.7703 149° Southeast 247 284 2,900 -240 Descending Cleveland Center